sensor_id;sensor_type;location;lat;lon;timestamp;P1;durP1;ratioP1;P2;durP2;ratioP2
6642;SDS011;3357;48.050;7.800;2024-03-17T00:00:11;3.77;;;1.17;;
6642;SDS011;3357;48.050;7.800;2024-03-17T00:02:39;2.70;;;1.20;;
6642;SDS011;3357;48.050;7.800;2024-03-17T00:05:06;2.10;;;1.03;;
6642;SDS011;3357;48.050;7.800;2024-03-17T00:07:31;1.20;;;1.10;;
6642;SDS011;3357;48.050;7.800;2024-03-17T00:09:57;1.10;;;1.10;;
6642;SDS011;3357;48.050;7.800;2024-03-17T00:12:22;3.07;;;1.30;;
6642;SDS011;3357;48.050;7.800;2024-03-17T00:14:47;1.30;;;1.20;;
6642;SDS011;3357;48.050;7.800;2024-03-17T00:17:13;1.30;;;1.10;;
6642;SDS011;3357;48.050;7.800;2024-03-17T00:19:38;1.70;;;1.20;;
6642;SDS011;3357;48.050;7.800;2024-03-17T00:22:03;5.03;;;1.37;;
6642;SDS011;3357;48.050;7.800;2024-03-17T00:24:29;2.50;;;1.20;;
6642;SDS011;3357;48.050;7.800;2024-03-17T00:26:59;3.13;;;1.00;;
6642;SDS011;3357;48.050;7.800;2024-03-17T00:29:25;3.40;;;1.10;;
6642;SDS011;3357;48.050;7.800;2024-03-17T00:31:51;1.40;;;1.30;;
6642;SDS011;3357;48.050;7.800;2024-03-17T00:34:16;1.77;;;1.40;;
6642;SDS011;3357;48.050;7.800;2024-03-17T00:36:41;5.53;;;1.50;;
6642;SDS011;3357;48.050;7.800;2024-03-17T00:39:06;2.00;;;1.30;;
6642;SDS011;3357;48.050;7.800;2024-03-17T00:41:32;1.60;;;1.20;;
6642;SDS011;3357;48.050;7.800;2024-03-17T00:43:57;4.27;;;2.20;;
6642;SDS011;3357;48.050;7.800;2024-03-17T00:46:22;2.00;;;1.53;;
6642;SDS011;3357;48.050;7.800;2024-03-17T00:48:48;2.60;;;1.80;;
6642;SDS011;3357;48.050;7.800;2024-03-17T00:51:14;3.73;;;1.87;;
6642;SDS011;3357;48.050;7.800;2024-03-17T00:53:39;4.17;;;2.07;;
6642;SDS011;3357;48.050;7.800;2024-03-17T00:56:05;2.03;;;1.93;;
6642;SDS011;3357;48.050;7.800;2024-03-17T00:58:31;2.50;;;2.30;;
6642;SDS011;3357;48.050;7.800;2024-03-17T01:00:56;2.60;;;2.10;;
6642;SDS011;3357;48.050;7.800;2024-03-17T01:03:22;3.80;;;2.10;;
6642;SDS011;3357;48.050;7.800;2024-03-17T01:05:47;10.83;;;3.10;;
6642;SDS011;3357;48.050;7.800;2024-03-17T01:08:13;2.43;;;1.60;;
6642;SDS011;3357;48.050;7.800;2024-03-17T01:10:42;2.60;;;1.80;;
6642;SDS011;3357;48.050;7.800;2024-03-17T01:13:08;1.93;;;1.70;;
6642;SDS011;3357;48.050;7.800;2024-03-17T01:15:35;2.40;;;2.00;;
6642;SDS011;3357;48.050;7.800;2024-03-17T01:18:01;2.20;;;2.00;;
6642;SDS011;3357;48.050;7.800;2024-03-17T01:20:27;2.10;;;1.97;;
6642;SDS011;3357;48.050;7.800;2024-03-17T01:22:52;5.83;;;2.13;;
6642;SDS011;3357;48.050;7.800;2024-03-17T01:25:18;1.93;;;1.73;;
6642;SDS011;3357;48.050;7.800;2024-03-17T01:27:43;2.53;;;2.37;;
6642;SDS011;3357;48.050;7.800;2024-03-17T01:30:09;3.40;;;2.10;;
6642;SDS011;3357;48.050;7.800;2024-03-17T01:32:35;1.60;;;1.50;;
6642;SDS011;3357;48.050;7.800;2024-03-17T01:35:00;3.53;;;2.27;;
6642;SDS011;3357;48.050;7.800;2024-03-17T01:37:26;2.60;;;2.00;;
6642;SDS011;3357;48.050;7.800;2024-03-17T01:39:51;3.43;;;1.70;;
6642;SDS011;3357;48.050;7.800;2024-03-17T01:42:16;2.27;;;1.80;;
6642;SDS011;3357;48.050;7.800;2024-03-17T01:44:41;1.63;;;1.40;;
6642;SDS011;3357;48.050;7.800;2024-03-17T01:47:07;3.10;;;1.70;;
6642;SDS011;3357;48.050;7.800;2024-03-17T01:49:34;2.40;;;1.20;;
6642;SDS011;3357;48.050;7.800;2024-03-17T01:51:59;1.60;;;1.50;;
6642;SDS011;3357;48.050;7.800;2024-03-17T01:54:25;2.03;;;1.50;;
6642;SDS011;3357;48.050;7.800;2024-03-17T01:56:51;1.27;;;1.27;;
6642;SDS011;3357;48.050;7.800;2024-03-17T01:59:16;1.40;;;1.30;;
6642;SDS011;3357;48.050;7.800;2024-03-17T02:01:42;1.80;;;1.70;;
6642;SDS011;3357;48.050;7.800;2024-03-17T02:04:07;1.80;;;1.40;;
6642;SDS011;3357;48.050;7.800;2024-03-17T02:06:32;1.40;;;1.30;;
6642;SDS011;3357;48.050;7.800;2024-03-17T02:08:58;3.90;;;1.63;;
6642;SDS011;3357;48.050;7.800;2024-03-17T02:11:24;1.97;;;1.27;;
6642;SDS011;3357;48.050;7.800;2024-03-17T02:13:53;1.77;;;1.20;;
6642;SDS011;3357;48.050;7.800;2024-03-17T02:16:20;2.60;;;1.20;;
6642;SDS011;3357;48.050;7.800;2024-03-17T02:18:45;1.70;;;1.60;;
6642;SDS011;3357;48.050;7.800;2024-03-17T02:21:11;4.60;;;1.50;;
6642;SDS011;3357;48.050;7.800;2024-03-17T02:23:40;5.60;;;1.40;;
6642;SDS011;3357;48.050;7.800;2024-03-17T02:26:08;2.60;;;1.57;;
6642;SDS011;3357;48.050;7.800;2024-03-17T02:28:40;4.40;;;1.63;;
6642;SDS011;3357;48.050;7.800;2024-03-17T02:31:07;3.63;;;1.50;;
6642;SDS011;3357;48.050;7.800;2024-03-17T02:33:34;3.73;;;1.60;;
6642;SDS011;3357;48.050;7.800;2024-03-17T02:36:00;2.63;;;1.23;;
6642;SDS011;3357;48.050;7.800;2024-03-17T02:38:25;2.53;;;1.37;;
6642;SDS011;3357;48.050;7.800;2024-03-17T02:41:09;1.20;;;1.10;;
6642;SDS011;3357;48.050;7.800;2024-03-17T02:43:35;2.00;;;1.57;;
6642;SDS011;3357;48.050;7.800;2024-03-17T02:46:01;1.40;;;1.30;;
6642;SDS011;3357;48.050;7.800;2024-03-17T02:48:29;1.97;;;1.40;;
6642;SDS011;3357;48.050;7.800;2024-03-17T02:50:55;1.30;;;1.20;;
6642;SDS011;3357;48.050;7.800;2024-03-17T02:53:21;1.20;;;1.20;;
6642;SDS011;3357;48.050;7.800;2024-03-17T02:55:46;1.97;;;1.83;;
6642;SDS011;3357;48.050;7.800;2024-03-17T02:58:11;2.10;;;1.40;;
6642;SDS011;3357;48.050;7.800;2024-03-17T03:00:36;1.70;;;1.60;;
6642;SDS011;3357;48.050;7.800;2024-03-17T03:03:02;3.23;;;1.50;;
6642;SDS011;3357;48.050;7.800;2024-03-17T03:05:27;6.27;;;1.67;;
6642;SDS011;3357;48.050;7.800;2024-03-17T03:07:52;1.53;;;1.43;;
6642;SDS011;3357;48.050;7.800;2024-03-17T03:10:18;3.90;;;2.53;;
6642;SDS011;3357;48.050;7.800;2024-03-17T03:12:43;2.30;;;1.40;;
6642;SDS011;3357;48.050;7.800;2024-03-17T03:15:08;4.83;;;1.40;;
6642;SDS011;3357;48.050;7.800;2024-03-17T03:17:34;1.60;;;1.50;;
6642;SDS011;3357;48.050;7.800;2024-03-17T03:19:59;1.70;;;1.60;;
6642;SDS011;3357;48.050;7.800;2024-03-17T03:22:26;4.87;;;1.77;;
6642;SDS011;3357;48.050;7.800;2024-03-17T03:24:51;1.77;;;1.50;;
6642;SDS011;3357;48.050;7.800;2024-03-17T03:27:17;1.77;;;1.67;;
6642;SDS011;3357;48.050;7.800;2024-03-17T03:29:42;1.50;;;1.40;;
6642;SDS011;3357;48.050;7.800;2024-03-17T03:32:08;1.40;;;1.30;;
6642;SDS011;3357;48.050;7.800;2024-03-17T03:34:33;1.30;;;1.20;;
6642;SDS011;3357;48.050;7.800;2024-03-17T03:36:58;3.10;;;1.57;;
6642;SDS011;3357;48.050;7.800;2024-03-17T03:39:24;2.27;;;1.60;;
6642;SDS011;3357;48.050;7.800;2024-03-17T03:41:52;1.30;;;1.10;;
6642;SDS011;3357;48.050;7.800;2024-03-17T03:44:17;1.53;;;1.43;;
6642;SDS011;3357;48.050;7.800;2024-03-17T03:46:44;1.50;;;1.40;;
6642;SDS011;3357;48.050;7.800;2024-03-17T03:49:09;1.43;;;1.20;;
6642;SDS011;3357;48.050;7.800;2024-03-17T03:51:35;3.87;;;1.63;;
6642;SDS011;3357;48.050;7.800;2024-03-17T03:54:00;5.33;;;1.33;;
6642;SDS011;3357;48.050;7.800;2024-03-17T03:56:25;3.70;;;2.07;;
6642;SDS011;3357;48.050;7.800;2024-03-17T03:58:50;3.23;;;2.10;;
6642;SDS011;3357;48.050;7.800;2024-03-17T04:01:16;1.40;;;1.30;;
6642;SDS011;3357;48.050;7.800;2024-03-17T04:03:46;4.73;;;2.33;;
6642;SDS011;3357;48.050;7.800;2024-03-17T04:06:12;2.87;;;1.40;;
6642;SDS011;3357;48.050;7.800;2024-03-17T04:08:39;1.20;;;1.20;;
6642;SDS011;3357;48.050;7.800;2024-03-17T04:11:08;1.50;;;1.40;;
6642;SDS011;3357;48.050;7.800;2024-03-17T04:13:33;1.30;;;1.20;;
6642;SDS011;3357;48.050;7.800;2024-03-17T04:15:59;1.17;;;1.17;;
6642;SDS011;3357;48.050;7.800;2024-03-17T04:18:26;1.23;;;1.23;;
6642;SDS011;3357;48.050;7.800;2024-03-17T04:20:55;1.30;;;1.30;;
6642;SDS011;3357;48.050;7.800;2024-03-17T04:23:21;1.50;;;1.40;;
6642;SDS011;3357;48.050;7.800;2024-03-17T04:25:46;2.23;;;1.67;;
6642;SDS011;3357;48.050;7.800;2024-03-17T04:28:12;1.60;;;1.10;;
6642;SDS011;3357;48.050;7.800;2024-03-17T04:30:39;2.23;;;1.23;;
6642;SDS011;3357;48.050;7.800;2024-03-17T04:33:04;2.37;;;1.30;;
6642;SDS011;3357;48.050;7.800;2024-03-17T04:35:31;1.60;;;1.37;;
6642;SDS011;3357;48.050;7.800;2024-03-17T04:38:00;1.10;;;1.10;;
6642;SDS011;3357;48.050;7.800;2024-03-17T04:40:25;1.47;;;1.37;;
6642;SDS011;3357;48.050;7.800;2024-03-17T04:42:51;2.30;;;1.57;;
6642;SDS011;3357;48.050;7.800;2024-03-17T04:45:16;2.07;;;1.30;;
6642;SDS011;3357;48.050;7.800;2024-03-17T04:47:41;2.00;;;1.47;;
6642;SDS011;3357;48.050;7.800;2024-03-17T04:50:06;2.60;;;1.00;;
6642;SDS011;3357;48.050;7.800;2024-03-17T04:52:32;1.20;;;1.20;;
6642;SDS011;3357;48.050;7.800;2024-03-17T04:54:57;1.67;;;1.43;;
6642;SDS011;3357;48.050;7.800;2024-03-17T04:57:23;1.33;;;1.20;;
6642;SDS011;3357;48.050;7.800;2024-03-17T04:59:48;1.33;;;1.17;;
6642;SDS011;3357;48.050;7.800;2024-03-17T05:02:13;1.30;;;1.20;;
6642;SDS011;3357;48.050;7.800;2024-03-17T05:04:38;2.97;;;1.40;;
6642;SDS011;3357;48.050;7.800;2024-03-17T05:07:04;2.03;;;1.30;;
6642;SDS011;3357;48.050;7.800;2024-03-17T05:09:30;1.30;;;1.20;;
6642;SDS011;3357;48.050;7.800;2024-03-17T05:11:55;1.30;;;1.20;;
6642;SDS011;3357;48.050;7.800;2024-03-17T05:14:20;1.40;;;1.30;;
6642;SDS011;3357;48.050;7.800;2024-03-17T05:16:48;1.30;;;1.20;;
6642;SDS011;3357;48.050;7.800;2024-03-17T05:19:14;1.93;;;1.43;;
6642;SDS011;3357;48.050;7.800;2024-03-17T05:21:40;2.07;;;1.60;;
6642;SDS011;3357;48.050;7.800;2024-03-17T05:24:05;1.23;;;1.23;;
6642;SDS011;3357;48.050;7.800;2024-03-17T05:26:31;1.40;;;1.30;;
6642;SDS011;3357;48.050;7.800;2024-03-17T05:28:56;1.40;;;1.30;;
6642;SDS011;3357;48.050;7.800;2024-03-17T05:31:22;1.30;;;1.20;;
6642;SDS011;3357;48.050;7.800;2024-03-17T05:33:47;1.50;;;1.30;;
6642;SDS011;3357;48.050;7.800;2024-03-17T05:36:13;2.73;;;1.10;;
6642;SDS011;3357;48.050;7.800;2024-03-17T05:38:38;1.80;;;1.60;;
6642;SDS011;3357;48.050;7.800;2024-03-17T05:41:04;1.47;;;1.20;;
6642;SDS011;3357;48.050;7.800;2024-03-17T05:43:31;1.70;;;1.47;;
6642;SDS011;3357;48.050;7.800;2024-03-17T05:45:58;2.37;;;1.77;;
6642;SDS011;3357;48.050;7.800;2024-03-17T05:48:24;1.40;;;1.30;;
6642;SDS011;3357;48.050;7.800;2024-03-17T05:50:49;1.40;;;1.30;;
6642;SDS011;3357;48.050;7.800;2024-03-17T05:53:16;1.50;;;1.40;;
6642;SDS011;3357;48.050;7.800;2024-03-17T05:55:42;3.23;;;1.63;;
6642;SDS011;3357;48.050;7.800;2024-03-17T05:58:08;1.43;;;1.33;;
6642;SDS011;3357;48.050;7.800;2024-03-17T06:00:37;1.50;;;1.40;;
6642;SDS011;3357;48.050;7.800;2024-03-17T06:03:04;1.50;;;1.40;;
6642;SDS011;3357;48.050;7.800;2024-03-17T06:05:37;1.63;;;1.53;;
6642;SDS011;3357;48.050;7.800;2024-03-17T06:08:04;1.33;;;1.23;;
6642;SDS011;3357;48.050;7.800;2024-03-17T06:10:30;1.73;;;1.63;;
6642;SDS011;3357;48.050;7.800;2024-03-17T06:12:57;2.03;;;1.47;;
6642;SDS011;3357;48.050;7.800;2024-03-17T06:15:23;1.50;;;1.40;;
6642;SDS011;3357;48.050;7.800;2024-03-17T06:17:49;2.40;;;1.47;;
6642;SDS011;3357;48.050;7.800;2024-03-17T06:20:17;2.07;;;1.87;;
6642;SDS011;3357;48.050;7.800;2024-03-17T06:22:43;1.70;;;1.23;;
6642;SDS011;3357;48.050;7.800;2024-03-17T06:25:08;1.40;;;1.30;;
6642;SDS011;3357;48.050;7.800;2024-03-17T06:27:34;2.00;;;1.80;;
6642;SDS011;3357;48.050;7.800;2024-03-17T06:29:59;1.43;;;1.33;;
6642;SDS011;3357;48.050;7.800;2024-03-17T06:32:28;2.77;;;1.20;;
6642;SDS011;3357;48.050;7.800;2024-03-17T06:34:57;1.80;;;1.30;;
6642;SDS011;3357;48.050;7.800;2024-03-17T06:37:23;1.97;;;1.47;;
6642;SDS011;3357;48.050;7.800;2024-03-17T06:39:49;2.10;;;1.30;;
6642;SDS011;3357;48.050;7.800;2024-03-17T06:42:14;1.93;;;1.83;;
6642;SDS011;3357;48.050;7.800;2024-03-17T06:44:40;1.37;;;1.27;;
6642;SDS011;3357;48.050;7.800;2024-03-17T06:47:05;1.90;;;1.30;;
6642;SDS011;3357;48.050;7.800;2024-03-17T06:49:31;4.20;;;1.90;;
6642;SDS011;3357;48.050;7.800;2024-03-17T06:51:56;1.67;;;1.20;;
6642;SDS011;3357;48.050;7.800;2024-03-17T06:54:21;2.17;;;1.53;;
6642;SDS011;3357;48.050;7.800;2024-03-17T06:56:47;1.67;;;1.57;;
6642;SDS011;3357;48.050;7.800;2024-03-17T06:59:12;2.77;;;1.90;;
6642;SDS011;3357;48.050;7.800;2024-03-17T07:01:37;3.63;;;1.90;;
6642;SDS011;3357;48.050;7.800;2024-03-17T07:04:03;2.97;;;1.63;;
6642;SDS011;3357;48.050;7.800;2024-03-17T07:06:28;1.60;;;1.50;;
6642;SDS011;3357;48.050;7.800;2024-03-17T07:08:54;1.67;;;1.57;;
6642;SDS011;3357;48.050;7.800;2024-03-17T07:11:20;13.10;;;3.20;;
6642;SDS011;3357;48.050;7.800;2024-03-17T07:13:48;3.60;;;1.83;;
6642;SDS011;3357;48.050;7.800;2024-03-17T07:16:15;4.10;;;1.67;;
6642;SDS011;3357;48.050;7.800;2024-03-17T07:18:40;6.57;;;1.43;;
6642;SDS011;3357;48.050;7.800;2024-03-17T07:21:07;1.90;;;1.67;;
6642;SDS011;3357;48.050;7.800;2024-03-17T07:23:35;1.87;;;1.70;;
6642;SDS011;3357;48.050;7.800;2024-03-17T07:26:00;6.07;;;1.47;;
6642;SDS011;3357;48.050;7.800;2024-03-17T07:28:26;2.90;;;1.30;;
6642;SDS011;3357;48.050;7.800;2024-03-17T07:30:55;1.50;;;1.40;;
6642;SDS011;3357;48.050;7.800;2024-03-17T07:33:21;2.67;;;1.57;;
6642;SDS011;3357;48.050;7.800;2024-03-17T07:35:56;1.60;;;1.50;;
6642;SDS011;3357;48.050;7.800;2024-03-17T07:38:25;6.03;;;1.83;;
6642;SDS011;3357;48.050;7.800;2024-03-17T07:43:23;2.17;;;1.97;;
6642;SDS011;3357;48.050;7.800;2024-03-17T07:48:29;3.67;;;3.00;;
6642;SDS011;3357;48.050;7.800;2024-03-17T07:50:58;10.57;;;6.37;;
6642;SDS011;3357;48.050;7.800;2024-03-17T07:53:26;2.47;;;2.30;;
6642;SDS011;3357;48.050;7.800;2024-03-17T07:58:28;4.43;;;3.07;;
6642;SDS011;3357;48.050;7.800;2024-03-17T08:00:57;7.67;;;3.10;;
6642;SDS011;3357;48.050;7.800;2024-03-17T08:03:24;3.67;;;3.30;;
6642;SDS011;3357;48.050;7.800;2024-03-17T08:05:50;7.63;;;3.20;;
6642;SDS011;3357;48.050;7.800;2024-03-17T08:08:16;7.43;;;3.17;;
6642;SDS011;3357;48.050;7.800;2024-03-17T08:10:41;5.10;;;2.80;;
6642;SDS011;3357;48.050;7.800;2024-03-17T08:13:07;3.00;;;2.60;;
6642;SDS011;3357;48.050;7.800;2024-03-17T08:15:34;3.63;;;2.80;;
6642;SDS011;3357;48.050;7.800;2024-03-17T08:17:59;2.80;;;2.60;;
6642;SDS011;3357;48.050;7.800;2024-03-17T08:20:24;8.03;;;2.50;;
6642;SDS011;3357;48.050;7.800;2024-03-17T08:22:49;5.07;;;2.30;;
6642;SDS011;3357;48.050;7.800;2024-03-17T08:25:15;5.00;;;2.70;;
6642;SDS011;3357;48.050;7.800;2024-03-17T08:27:40;4.23;;;2.87;;
6642;SDS011;3357;48.050;7.800;2024-03-17T08:30:05;4.70;;;2.90;;
6642;SDS011;3357;48.050;7.800;2024-03-17T08:32:34;11.03;;;3.37;;
6642;SDS011;3357;48.050;7.800;2024-03-17T08:35:00;4.27;;;3.20;;
6642;SDS011;3357;48.050;7.800;2024-03-17T08:37:25;4.83;;;3.27;;
6642;SDS011;3357;48.050;7.800;2024-03-17T08:39:50;3.57;;;2.70;;
6642;SDS011;3357;48.050;7.800;2024-03-17T08:42:16;4.60;;;2.90;;
6642;SDS011;3357;48.050;7.800;2024-03-17T08:44:42;4.40;;;2.97;;
6642;SDS011;3357;48.050;7.800;2024-03-17T08:47:11;8.83;;;3.73;;
6642;SDS011;3357;48.050;7.800;2024-03-17T08:49:36;6.87;;;3.10;;
6642;SDS011;3357;48.050;7.800;2024-03-17T08:52:01;6.00;;;3.27;;
6642;SDS011;3357;48.050;7.800;2024-03-17T08:54:27;7.40;;;4.07;;
6642;SDS011;3357;48.050;7.800;2024-03-17T08:56:52;3.20;;;3.00;;
6642;SDS011;3357;48.050;7.800;2024-03-17T08:59:17;5.87;;;3.13;;
6642;SDS011;3357;48.050;7.800;2024-03-17T09:01:42;5.83;;;3.60;;
6642;SDS011;3357;48.050;7.800;2024-03-17T09:04:08;6.43;;;3.53;;
6642;SDS011;3357;48.050;7.800;2024-03-17T09:06:36;6.43;;;3.10;;
6642;SDS011;3357;48.050;7.800;2024-03-17T09:09:01;9.47;;;3.90;;
6642;SDS011;3357;48.050;7.800;2024-03-17T09:11:28;3.80;;;2.93;;
6642;SDS011;3357;48.050;7.800;2024-03-17T09:13:53;4.30;;;3.47;;
6642;SDS011;3357;48.050;7.800;2024-03-17T09:16:19;6.73;;;3.20;;
6642;SDS011;3357;48.050;7.800;2024-03-17T09:18:47;4.80;;;3.50;;
6642;SDS011;3357;48.050;7.800;2024-03-17T09:21:13;5.30;;;3.67;;
6642;SDS011;3357;48.050;7.800;2024-03-17T09:23:41;6.27;;;3.20;;
6642;SDS011;3357;48.050;7.800;2024-03-17T09:26:07;5.20;;;3.63;;
6642;SDS011;3357;48.050;7.800;2024-03-17T09:28:33;8.10;;;3.60;;
6642;SDS011;3357;48.050;7.800;2024-03-17T09:30:59;4.30;;;3.00;;
6642;SDS011;3357;48.050;7.800;2024-03-17T09:33:25;10.37;;;3.30;;
6642;SDS011;3357;48.050;7.800;2024-03-17T09:36:04;5.63;;;3.33;;
6642;SDS011;3357;48.050;7.800;2024-03-17T09:38:35;3.13;;;2.83;;
6642;SDS011;3357;48.050;7.800;2024-03-17T09:41:01;9.43;;;3.40;;
6642;SDS011;3357;48.050;7.800;2024-03-17T09:43:27;12.73;;;3.60;;
6642;SDS011;3357;48.050;7.800;2024-03-17T09:46:01;6.37;;;3.00;;
6642;SDS011;3357;48.050;7.800;2024-03-17T09:48:30;8.53;;;3.90;;
6642;SDS011;3357;48.050;7.800;2024-03-17T09:50:56;9.83;;;3.80;;
6642;SDS011;3357;48.050;7.800;2024-03-17T09:53:29;3.40;;;3.10;;
6642;SDS011;3357;48.050;7.800;2024-03-17T09:56:03;6.63;;;3.00;;
6642;SDS011;3357;48.050;7.800;2024-03-17T09:58:33;6.20;;;3.17;;
6642;SDS011;3357;48.050;7.800;2024-03-17T10:00:59;6.40;;;4.30;;
6642;SDS011;3357;48.050;7.800;2024-03-17T10:06:19;6.10;;;3.57;;
6642;SDS011;3357;48.050;7.800;2024-03-17T10:08:47;5.33;;;3.27;;
6642;SDS011;3357;48.050;7.800;2024-03-17T10:11:13;5.07;;;3.50;;
6642;SDS011;3357;48.050;7.800;2024-03-17T10:13:40;4.77;;;3.10;;
6642;SDS011;3357;48.050;7.800;2024-03-17T10:16:05;3.60;;;2.90;;
6642;SDS011;3357;48.050;7.800;2024-03-17T10:18:31;4.80;;;3.50;;
6642;SDS011;3357;48.050;7.800;2024-03-17T10:20:56;6.30;;;2.90;;
6642;SDS011;3357;48.050;7.800;2024-03-17T10:23:23;4.77;;;2.70;;
6642;SDS011;3357;48.050;7.800;2024-03-17T10:25:49;6.20;;;3.23;;
6642;SDS011;3357;48.050;7.800;2024-03-17T10:28:15;4.93;;;3.60;;
6642;SDS011;3357;48.050;7.800;2024-03-17T10:30:41;5.50;;;3.60;;
6642;SDS011;3357;48.050;7.800;2024-03-17T10:33:07;8.17;;;3.40;;
6642;SDS011;3357;48.050;7.800;2024-03-17T10:35:47;5.47;;;3.10;;
6642;SDS011;3357;48.050;7.800;2024-03-17T10:38:13;3.93;;;2.90;;
6642;SDS011;3357;48.050;7.800;2024-03-17T10:40:38;4.37;;;3.10;;
6642;SDS011;3357;48.050;7.800;2024-03-17T10:43:05;5.60;;;3.30;;
6642;SDS011;3357;48.050;7.800;2024-03-17T10:45:30;4.90;;;2.37;;
6642;SDS011;3357;48.050;7.800;2024-03-17T10:48:01;6.10;;;3.20;;
6642;SDS011;3357;48.050;7.800;2024-03-17T10:50:28;7.60;;;3.23;;
6642;SDS011;3357;48.050;7.800;2024-03-17T10:52:55;8.80;;;3.60;;
6642;SDS011;3357;48.050;7.800;2024-03-17T10:55:27;6.13;;;3.10;;
6642;SDS011;3357;48.050;7.800;2024-03-17T10:57:56;3.60;;;2.77;;
6642;SDS011;3357;48.050;7.800;2024-03-17T11:00:23;7.23;;;3.27;;
6642;SDS011;3357;48.050;7.800;2024-03-17T11:02:50;4.47;;;2.87;;
6642;SDS011;3357;48.050;7.800;2024-03-17T11:05:21;4.53;;;3.20;;
6642;SDS011;3357;48.050;7.800;2024-03-17T11:07:48;3.50;;;2.70;;
6642;SDS011;3357;48.050;7.800;2024-03-17T11:10:19;3.43;;;2.70;;
6642;SDS011;3357;48.050;7.800;2024-03-17T11:12:55;5.23;;;2.80;;
6642;SDS011;3357;48.050;7.800;2024-03-17T11:20:33;4.90;;;2.30;;
6642;SDS011;3357;48.050;7.800;2024-03-17T11:23:00;6.47;;;3.60;;
6642;SDS011;3357;48.050;7.800;2024-03-17T11:27:54;4.10;;;2.93;;
6642;SDS011;3357;48.050;7.800;2024-03-17T11:46:44;5.37;;;2.93;;
6642;SDS011;3357;48.050;7.800;2024-03-17T11:49:16;5.57;;;3.30;;
6642;SDS011;3357;48.050;7.800;2024-03-17T11:51:44;4.60;;;3.53;;
6642;SDS011;3357;48.050;7.800;2024-03-17T11:54:14;8.13;;;4.13;;
6642;SDS011;3357;48.050;7.800;2024-03-17T11:56:45;8.00;;;3.27;;
6642;SDS011;3357;48.050;7.800;2024-03-17T11:59:11;9.40;;;3.10;;
6642;SDS011;3357;48.050;7.800;2024-03-17T12:01:36;9.60;;;3.20;;
6642;SDS011;3357;48.050;7.800;2024-03-17T12:04:02;7.33;;;3.30;;
6642;SDS011;3357;48.050;7.800;2024-03-17T12:06:31;9.00;;;3.90;;
6642;SDS011;3357;48.050;7.800;2024-03-17T12:11:58;11.50;;;4.00;;
6642;SDS011;3357;48.050;7.800;2024-03-17T12:14:24;5.20;;;3.23;;
6642;SDS011;3357;48.050;7.800;2024-03-17T12:16:53;6.03;;;3.17;;
6642;SDS011;3357;48.050;7.800;2024-03-17T12:19:23;7.40;;;3.20;;
6642;SDS011;3357;48.050;7.800;2024-03-17T12:21:50;7.60;;;2.70;;
6642;SDS011;3357;48.050;7.800;2024-03-17T12:24:19;6.77;;;3.60;;
6642;SDS011;3357;48.050;7.800;2024-03-17T12:26:49;5.53;;;3.47;;
6642;SDS011;3357;48.050;7.800;2024-03-17T12:32:05;7.67;;;3.93;;
6642;SDS011;3357;48.050;7.800;2024-03-17T12:34:41;8.10;;;3.63;;
6642;SDS011;3357;48.050;7.800;2024-03-17T12:37:07;8.27;;;4.00;;
6642;SDS011;3357;48.050;7.800;2024-03-17T12:39:33;12.13;;;5.63;;
6642;SDS011;3357;48.050;7.800;2024-03-17T12:44:33;4.10;;;3.20;;
6642;SDS011;3357;48.050;7.800;2024-03-17T12:47:00;9.53;;;4.77;;
6642;SDS011;3357;48.050;7.800;2024-03-17T12:49:31;6.83;;;4.30;;
6642;SDS011;3357;48.050;7.800;2024-03-17T12:51:59;10.23;;;3.90;;
6642;SDS011;3357;48.050;7.800;2024-03-17T12:54:25;8.20;;;4.17;;
6642;SDS011;3357;48.050;7.800;2024-03-17T12:56:52;11.63;;;3.77;;
6642;SDS011;3357;48.050;7.800;2024-03-17T12:59:55;7.93;;;4.03;;
6642;SDS011;3357;48.050;7.800;2024-03-17T13:02:43;4.40;;;3.30;;
6642;SDS011;3357;48.050;7.800;2024-03-17T13:07:45;9.90;;;4.27;;
6642;SDS011;3357;48.050;7.800;2024-03-17T13:10:12;4.10;;;3.67;;
6642;SDS011;3357;48.050;7.800;2024-03-17T13:12:43;5.80;;;3.70;;
6642;SDS011;3357;48.050;7.800;2024-03-17T13:15:13;4.13;;;3.37;;
6642;SDS011;3357;48.050;7.800;2024-03-17T13:17:40;7.33;;;3.47;;
6642;SDS011;3357;48.050;7.800;2024-03-17T13:20:06;5.07;;;3.40;;
6642;SDS011;3357;48.050;7.800;2024-03-17T13:22:36;3.40;;;3.10;;
6642;SDS011;3357;48.050;7.800;2024-03-17T13:25:04;6.53;;;2.93;;
6642;SDS011;3357;48.050;7.800;2024-03-17T13:27:29;4.13;;;3.83;;
6642;SDS011;3357;48.050;7.800;2024-03-17T13:29:54;5.90;;;4.00;;
6642;SDS011;3357;48.050;7.800;2024-03-17T13:32:20;8.87;;;4.77;;
6642;SDS011;3357;48.050;7.800;2024-03-17T13:34:45;7.43;;;3.63;;
6642;SDS011;3357;48.050;7.800;2024-03-17T13:37:10;6.33;;;3.80;;
6642;SDS011;3357;48.050;7.800;2024-03-17T13:39:36;5.27;;;4.17;;
6642;SDS011;3357;48.050;7.800;2024-03-17T13:42:01;4.50;;;3.40;;
6642;SDS011;3357;48.050;7.800;2024-03-17T13:44:29;4.47;;;3.63;;
6642;SDS011;3357;48.050;7.800;2024-03-17T13:46:55;4.80;;;3.53;;
6642;SDS011;3357;48.050;7.800;2024-03-17T13:49:21;7.23;;;3.97;;
6642;SDS011;3357;48.050;7.800;2024-03-17T13:51:47;8.90;;;3.60;;
6642;SDS011;3357;48.050;7.800;2024-03-17T13:54:12;6.40;;;3.27;;
6642;SDS011;3357;48.050;7.800;2024-03-17T13:56:37;4.93;;;3.10;;
6642;SDS011;3357;48.050;7.800;2024-03-17T13:59:03;7.37;;;3.70;;
6642;SDS011;3357;48.050;7.800;2024-03-17T14:01:29;5.43;;;3.00;;
6642;SDS011;3357;48.050;7.800;2024-03-17T14:03:54;7.03;;;3.47;;
6642;SDS011;3357;48.050;7.800;2024-03-17T14:06:19;7.77;;;4.13;;
6642;SDS011;3357;48.050;7.800;2024-03-17T14:08:45;9.40;;;3.20;;
6642;SDS011;3357;48.050;7.800;2024-03-17T14:11:10;4.23;;;3.57;;
6642;SDS011;3357;48.050;7.800;2024-03-17T14:13:35;5.53;;;3.50;;
6642;SDS011;3357;48.050;7.800;2024-03-17T14:16:00;10.27;;;4.03;;
6642;SDS011;3357;48.050;7.800;2024-03-17T14:18:26;6.00;;;3.37;;
6642;SDS011;3357;48.050;7.800;2024-03-17T14:20:51;5.53;;;3.87;;
6642;SDS011;3357;48.050;7.800;2024-03-17T14:23:17;9.53;;;2.80;;
6642;SDS011;3357;48.050;7.800;2024-03-17T14:25:42;9.27;;;3.37;;
6642;SDS011;3357;48.050;7.800;2024-03-17T14:28:07;7.00;;;3.10;;
6642;SDS011;3357;48.050;7.800;2024-03-17T14:30:33;8.93;;;3.77;;
6642;SDS011;3357;48.050;7.800;2024-03-17T14:32:58;6.77;;;2.93;;
6642;SDS011;3357;48.050;7.800;2024-03-17T14:35:24;11.27;;;3.67;;
6642;SDS011;3357;48.050;7.800;2024-03-17T14:37:51;4.47;;;2.63;;
6642;SDS011;3357;48.050;7.800;2024-03-17T14:40:17;3.77;;;2.53;;
6642;SDS011;3357;48.050;7.800;2024-03-17T14:42:48;7.20;;;2.93;;
6642;SDS011;3357;48.050;7.800;2024-03-17T14:45:14;3.83;;;2.70;;
6642;SDS011;3357;48.050;7.800;2024-03-17T14:47:41;7.30;;;2.77;;
6642;SDS011;3357;48.050;7.800;2024-03-17T14:50:06;5.00;;;2.90;;
6642;SDS011;3357;48.050;7.800;2024-03-17T14:52:33;4.90;;;2.47;;
6642;SDS011;3357;48.050;7.800;2024-03-17T14:54:59;7.50;;;3.37;;
6642;SDS011;3357;48.050;7.800;2024-03-17T14:57:25;3.00;;;2.47;;
6642;SDS011;3357;48.050;7.800;2024-03-17T14:59:51;4.70;;;2.80;;
6642;SDS011;3357;48.050;7.800;2024-03-17T15:02:16;5.10;;;2.50;;
6642;SDS011;3357;48.050;7.800;2024-03-17T15:04:42;3.73;;;2.57;;
6642;SDS011;3357;48.050;7.800;2024-03-17T15:07:07;7.97;;;2.97;;
6642;SDS011;3357;48.050;7.800;2024-03-17T15:09:33;9.23;;;3.60;;
6642;SDS011;3357;48.050;7.800;2024-03-17T15:11:58;8.07;;;3.17;;
6642;SDS011;3357;48.050;7.800;2024-03-17T15:14:23;5.53;;;3.00;;
6642;SDS011;3357;48.050;7.800;2024-03-17T15:16:50;5.30;;;2.77;;
6642;SDS011;3357;48.050;7.800;2024-03-17T15:19:15;3.70;;;2.60;;
6642;SDS011;3357;48.050;7.800;2024-03-17T15:21:40;10.87;;;3.30;;
6642;SDS011;3357;48.050;7.800;2024-03-17T15:24:06;6.33;;;2.90;;
6642;SDS011;3357;48.050;7.800;2024-03-17T15:26:32;5.77;;;3.07;;
6642;SDS011;3357;48.050;7.800;2024-03-17T15:28:57;7.30;;;3.47;;
6642;SDS011;3357;48.050;7.800;2024-03-17T15:31:23;5.53;;;3.17;;
6642;SDS011;3357;48.050;7.800;2024-03-17T15:33:50;6.73;;;2.80;;
6642;SDS011;3357;48.050;7.800;2024-03-17T15:36:15;6.33;;;2.93;;
6642;SDS011;3357;48.050;7.800;2024-03-17T15:38:41;8.80;;;3.50;;
6642;SDS011;3357;48.050;7.800;2024-03-17T15:41:08;3.83;;;2.70;;
6642;SDS011;3357;48.050;7.800;2024-03-17T15:43:36;5.33;;;2.90;;
6642;SDS011;3357;48.050;7.800;2024-03-17T15:46:15;7.83;;;2.97;;
6642;SDS011;3357;48.050;7.800;2024-03-17T15:48:43;5.17;;;2.93;;
6642;SDS011;3357;48.050;7.800;2024-03-17T15:51:08;6.67;;;2.90;;
6642;SDS011;3357;48.050;7.800;2024-03-17T15:53:33;4.77;;;3.40;;
6642;SDS011;3357;48.050;7.800;2024-03-17T15:55:59;9.27;;;2.93;;